createdAt,value
2019-04-26T00:00:43.750Z,2.55
2019-04-26T00:01:53.053Z,2.47
2019-04-26T00:03:00.718Z,3.12
2019-04-26T00:04:05.199Z,2.45
2019-04-26T00:05:10.419Z,2.65
2019-04-26T00:06:16.572Z,2.80
2019-04-26T00:07:21.395Z,2.70
2019-04-26T00:08:26.216Z,2.20
2019-04-26T00:09:35.695Z,2.40
2019-04-26T00:10:59.049Z,2.90
2019-04-26T00:12:20.810Z,2.40
2019-04-26T00:13:47.179Z,3.10
2019-04-26T00:15:11.018Z,2.35
2019-04-26T00:16:30.190Z,2.67
2019-04-26T00:17:38.215Z,2.60
2019-04-26T00:18:42.665Z,2.70
2019-04-26T00:19:46.879Z,3.08
2019-04-26T00:20:51.307Z,2.65
2019-04-26T00:21:55.474Z,2.42
2019-04-26T00:23:00.022Z,3.40
2019-04-26T00:24:04.489Z,3.15
2019-04-26T00:25:08.914Z,2.75
2019-04-26T00:26:13.530Z,2.75
2019-04-26T00:27:18.920Z,3.55
2019-04-26T00:28:23.523Z,2.75
2019-04-26T00:29:27.696Z,2.42
2019-04-26T00:30:31.943Z,3.20
2019-04-26T00:31:36.219Z,3.05
2019-04-26T00:32:40.785Z,2.70
2019-04-26T00:33:45.261Z,3.00
2019-04-26T00:34:49.467Z,2.55
2019-04-26T00:35:53.674Z,2.50
2019-04-26T00:36:57.902Z,2.80
2019-04-26T00:38:02.128Z,2.40
2019-04-26T00:39:07.435Z,2.65
2019-04-26T00:40:12.801Z,2.40
2019-04-26T00:41:18.528Z,2.70
2019-04-26T00:42:23.808Z,2.90
2019-04-26T00:43:28.793Z,2.00
2019-04-26T00:44:33.702Z,2.85
2019-04-26T00:45:38.319Z,3.15
2019-04-26T00:46:45.490Z,2.47
2019-04-26T00:47:51.247Z,3.37
2019-04-26T00:48:56.620Z,2.72
2019-04-26T00:50:01.919Z,2.50
2019-04-26T00:51:08.521Z,2.40
2019-04-26T00:52:15.668Z,2.70
2019-04-26T00:53:21.752Z,2.65
2019-04-26T00:54:27.167Z,2.87
2019-04-26T00:55:33.457Z,3.22
2019-04-26T00:56:38.524Z,2.98
2019-04-26T00:57:43.626Z,3.30
2019-04-26T00:58:48.597Z,2.50
2019-04-26T00:59:53.249Z,3.45
2019-04-26T01:00:57.679Z,3.08
2019-04-26T01:02:09.127Z,3.60
2019-04-26T01:03:15.195Z,2.90
2019-04-26T01:04:19.515Z,2.90
2019-04-26T01:05:23.776Z,2.67
2019-04-26T01:06:30.523Z,3.10
2019-04-26T01:07:34.771Z,3.30
2019-04-26T01:08:38.965Z,2.92
2019-04-26T01:09:43.678Z,2.90
2019-04-26T01:10:47.926Z,2.90
2019-04-26T01:11:52.337Z,2.70
2019-04-26T01:12:56.579Z,2.70
2019-04-26T01:14:00.886Z,2.95
2019-04-26T01:15:05.915Z,2.90
2019-04-26T01:16:10.313Z,2.85
2019-04-26T01:17:14.517Z,3.20
2019-04-26T01:18:18.789Z,3.10
2019-04-26T01:19:25.015Z,3.37
2019-04-26T01:20:32.164Z,3.15
2019-04-26T01:21:42.111Z,2.60
2019-04-26T01:22:50.163Z,2.92
2019-04-26T01:23:57.800Z,2.60
2019-04-26T01:25:03.796Z,3.10
2019-04-26T01:26:16.923Z,3.10
2019-04-26T01:27:25.662Z,2.50
2019-04-26T01:28:39.407Z,3.05
2019-04-26T01:29:45.645Z,2.47
2019-04-26T01:30:50.796Z,2.60
2019-04-26T01:32:03.006Z,2.80
2019-04-26T01:33:09.109Z,2.67
2019-04-26T01:34:13.503Z,2.50
2019-04-26T01:35:17.845Z,2.85
2019-04-26T01:36:26.417Z,2.70
2019-04-26T01:37:32.630Z,2.67
2019-04-26T01:38:37.068Z,2.90
2019-04-26T01:39:45.403Z,2.60
2019-04-26T01:40:52.075Z,2.72
2019-04-26T01:42:03.657Z,2.25
2019-04-26T01:43:30.262Z,2.30
2019-04-26T01:44:47.265Z,2.50
2019-04-26T01:46:15.303Z,2.85
2019-04-26T01:47:20.780Z,2.60
2019-04-26T01:48:44.387Z,2.40
2019-04-26T01:49:49.779Z,2.87
2019-04-26T01:50:54.231Z,2.50
2019-04-26T01:52:06.473Z,3.08
2019-04-26T01:53:10.718Z,2.40
2019-04-26T01:54:18.018Z,2.85
2019-04-26T01:55:24.862Z,2.70
2019-04-26T01:56:49.695Z,2.87
2019-04-26T01:57:54.906Z,2.33
2019-04-26T01:58:59.433Z,2.42
2019-04-26T02:00:31.783Z,2.22
2019-04-26T02:01:55.624Z,2.40
2019-04-26T02:03:02.984Z,2.33
2019-04-26T02:04:07.433Z,2.10
2019-04-26T02:05:16.393Z,2.00
2019-04-26T02:06:28.795Z,2.33
2019-04-26T02:07:38.707Z,3.10
2019-04-26T02:08:43.244Z,2.40
2019-04-26T02:09:47.564Z,2.52
2019-04-26T02:10:51.768Z,2.22
2019-04-26T02:11:56.131Z,2.05
2019-04-26T02:13:00.782Z,2.05
2019-04-26T02:14:05.319Z,2.60
2019-04-26T02:15:09.822Z,2.70
2019-04-26T02:16:14.431Z,2.45
2019-04-26T02:17:18.599Z,2.55
2019-04-26T02:18:23.908Z,2.45
2019-04-26T02:19:29.467Z,3.22
2019-04-26T02:21:03.189Z,2.67
2019-04-26T02:22:17.683Z,1.90
2019-04-26T02:23:28.145Z,1.98
2019-04-26T02:24:35.443Z,2.47
2019-04-26T02:25:39.747Z,2.20
2019-04-26T02:26:46.299Z,2.45
2019-04-26T02:27:50.441Z,2.52
2019-04-26T02:28:54.729Z,2.52
2019-04-26T02:30:00.700Z,2.45
2019-04-26T02:31:05.089Z,2.90
2019-04-26T02:32:09.604Z,2.70
2019-04-26T02:33:14.054Z,2.22
2019-04-26T02:34:18.522Z,2.60
2019-04-26T02:35:23.050Z,2.12
2019-04-26T02:36:47.888Z,2.33
2019-04-26T02:37:36.145Z,2.85
2019-04-26T02:38:40.869Z,2.37
2019-04-26T02:39:45.434Z,2.50
2019-04-26T02:40:51.302Z,2.30
2019-04-26T02:41:58.189Z,2.70
2019-04-26T02:43:02.776Z,3.22
2019-04-26T02:44:10.404Z,2.87
2019-04-26T02:45:59.167Z,2.40
2019-04-26T02:47:39.103Z,2.05
2019-04-26T02:49:12.253Z,2.37
2019-04-26T02:50:47.177Z,2.70
2019-04-26T02:52:00.906Z,2.70
2019-04-26T02:53:29.537Z,2.20
2019-04-26T02:54:45.750Z,2.55
2019-04-26T02:56:24.491Z,2.40
2019-04-26T02:57:38.879Z,2.15
2019-04-26T02:58:50.417Z,2.40
2019-04-26T03:00:01.654Z,2.35
2019-04-26T03:01:06.083Z,2.02
2019-04-26T03:02:15.773Z,1.65
2019-04-26T03:03:22.974Z,2.02
2019-04-26T03:04:30.202Z,2.30
2019-04-26T03:05:39.723Z,2.52
2019-04-26T03:07:01.813Z,1.85
2019-04-26T03:08:02.201Z,2.27
2019-04-26T03:09:07.513Z,2.70
2019-04-26T03:10:13.362Z,2.40
2019-04-26T03:11:21.232Z,2.45
2019-04-26T03:12:30.888Z,2.52
2019-04-26T03:13:55.805Z,2.22
2019-04-26T03:15:20.389Z,2.65
2019-04-26T03:16:52.348Z,2.35
2019-04-26T03:18:19.909Z,2.50
2019-04-26T03:19:51.234Z,2.02
2019-04-26T03:21:01.268Z,2.58
2019-04-26T03:22:18.705Z,2.40
2019-04-26T03:23:58.247Z,2.65
2019-04-26T03:25:11.022Z,2.45
2019-04-26T03:26:44.329Z,2.77
2019-04-26T03:28:08.932Z,2.17
2019-04-26T03:29:39.579Z,2.17
2019-04-26T03:31:10.052Z,2.30
2019-04-26T03:32:50.958Z,2.45
2019-04-26T03:34:08.455Z,2.42
2019-04-26T03:35:36.985Z,2.90
2019-04-26T03:37:28.107Z,2.08
2019-04-26T03:38:47.720Z,2.20
2019-04-26T03:40:08.521Z,2.85
2019-04-26T03:41:25.527Z,2.55
2019-04-26T03:43:07.997Z,2.50
2019-04-26T03:44:20.005Z,2.30
2019-04-26T03:45:55.183Z,3.37
2019-04-26T03:47:03.656Z,2.08
2019-04-26T03:48:23.385Z,2.67
2019-04-26T03:50:01.186Z,2.90
2019-04-26T03:51:13.488Z,2.20
2019-04-26T03:52:54.390Z,1.90
2019-04-26T03:54:07.052Z,2.30
2019-04-26T03:55:53.452Z,2.33
2019-04-26T03:57:36.269Z,2.15
2019-04-26T03:59:17.297Z,2.60
2019-04-26T04:00:46.919Z,2.50
2019-04-26T04:02:11.902Z,2.60
2019-04-26T04:03:47.788Z,2.15
2019-04-26T04:05:13.442Z,2.27
2019-04-26T04:06:23.971Z,2.50
2019-04-26T04:07:39.550Z,2.33
2019-04-26T04:08:48.200Z,3.67
2019-04-26T04:09:59.380Z,2.35
2019-04-26T04:11:07.629Z,2.70
2019-04-26T04:12:21.120Z,3.10
2019-04-26T04:13:44.452Z,2.22
2019-04-26T04:15:06.331Z,2.67
2019-04-26T04:16:48.673Z,2.12
2019-04-26T04:18:02.974Z,2.47
2019-04-26T04:19:16.196Z,2.52
2019-04-26T04:20:49.498Z,2.30
2019-04-26T04:22:01.495Z,2.30
2019-04-26T04:23:32.992Z,2.52
2019-04-26T04:24:52.828Z,2.20
2019-04-26T04:26:00.174Z,2.35
2019-04-26T04:27:41.361Z,2.02
2019-04-26T04:29:06.582Z,1.92
2019-04-26T04:30:45.905Z,2.30
2019-04-26T04:31:54.942Z,2.33
2019-04-26T04:33:16.858Z,2.87
2019-04-26T04:34:27.976Z,2.00
2019-04-26T04:35:35.841Z,2.20
2019-04-26T04:36:52.899Z,2.37
2019-04-26T04:38:09.664Z,2.50
2019-04-26T04:39:33.299Z,2.33
2019-04-26T04:41:35.368Z,2.17
2019-04-26T04:42:58.208Z,2.40
2019-04-26T04:44:29.728Z,2.27
2019-04-26T04:46:36.134Z,2.80
2019-04-26T04:47:54.254Z,2.30
2019-04-26T04:49:28.872Z,2.33
2019-04-26T04:50:44.845Z,1.90
2019-04-26T04:52:18.377Z,1.92
2019-04-26T04:53:49.717Z,2.00
2019-04-26T04:55:06.623Z,2.17
2019-04-26T04:56:28.867Z,2.12
2019-04-26T04:57:48.699Z,2.30
2019-04-26T04:58:55.980Z,1.90
2019-04-26T05:00:12.601Z,2.33
2019-04-26T05:02:01.419Z,2.27
2019-04-26T05:03:37.767Z,2.52
2019-04-26T05:05:27.519Z,1.52
2019-04-26T05:06:53.233Z,1.77
2019-04-26T05:08:18.096Z,1.80
2019-04-26T05:09:29.735Z,2.00
2019-04-26T05:10:45.564Z,1.80
2019-04-26T05:12:13.477Z,1.90
2019-04-26T05:13:42.187Z,1.90
2019-04-26T05:15:14.969Z,1.55
2019-04-26T05:16:54.704Z,1.60
2019-04-26T05:18:24.249Z,1.70
2019-04-26T05:20:22.519Z,1.60
2019-04-26T05:21:41.231Z,1.90
2019-04-26T05:23:23.751Z,2.05
2019-04-26T05:25:08.319Z,1.27
2019-04-26T05:27:09.683Z,1.65
2019-04-26T05:28:27.456Z,1.62
2019-04-26T05:29:54.602Z,1.52
2019-04-26T05:31:25.388Z,1.67
2019-04-26T05:33:10.808Z,1.70
2019-04-26T05:34:34.851Z,1.40
2019-04-26T05:36:14.907Z,1.40
2019-04-26T05:37:49.266Z,1.55
2019-04-26T05:39:20.511Z,1.37
2019-04-26T05:41:01.651Z,1.50
2019-04-26T05:42:35.578Z,1.30
2019-04-26T05:44:13.189Z,1.12
2019-04-26T05:46:04.057Z,1.60
2019-04-26T05:48:06.255Z,2.80
2019-04-26T05:49:37.130Z,1.55
2019-04-26T05:51:34.070Z,1.00
2019-04-26T05:53:06.507Z,1.10
2019-04-26T05:54:44.484Z,1.30
2019-04-26T05:56:22.005Z,1.20
2019-04-26T05:58:03.687Z,1.85
2019-04-26T05:59:17.102Z,1.40
2019-04-26T06:00:36.020Z,1.72
2019-04-26T06:02:25.572Z,1.45
2019-04-26T06:04:19.158Z,1.20
2019-04-26T06:06:05.322Z,1.20
2019-04-26T06:07:34.666Z,1.20
2019-04-26T06:09:23.401Z,1.30
2019-04-26T06:10:36.527Z,1.42
2019-04-26T06:11:48.464Z,1.37
2019-04-26T06:13:41.737Z,1.50
2019-04-26T06:15:24.250Z,1.40
2019-04-26T06:17:01.383Z,1.20
2019-04-26T06:18:25.140Z,1.05
2019-04-26T06:19:59.733Z,1.40
2019-04-26T06:21:19.357Z,1.22
2019-04-26T06:22:43.595Z,1.50
2019-04-26T06:24:11.842Z,1.25
2019-04-26T06:25:31.806Z,1.12
2019-04-26T06:27:11.851Z,1.55
2019-04-26T06:28:13.911Z,1.45
2019-04-26T06:29:33.298Z,1.47
2019-04-26T06:30:50.379Z,1.30
2019-04-26T06:32:04.709Z,1.12
2019-04-26T06:33:27.570Z,1.20
2019-04-26T06:35:05.379Z,1.10
2019-04-26T06:36:17.334Z,1.85
2019-04-26T06:37:33.666Z,1.20
2019-04-26T06:39:30.143Z,1.45
2019-04-26T06:40:54.550Z,1.00
2019-04-26T06:42:37.029Z,1.15
2019-04-26T06:43:47.270Z,1.10
2019-04-26T06:45:51.847Z,1.37
2019-04-26T06:47:16.484Z,1.65
2019-04-26T06:48:37.234Z,1.20
2019-04-26T06:50:23.137Z,1.10
2019-04-26T06:51:34.508Z,1.20
2019-04-26T06:52:49.240Z,1.50
2019-04-26T06:54:08.095Z,1.30
2019-04-26T06:55:23.675Z,1.27
2019-04-26T06:57:26.887Z,1.10
2019-04-26T06:58:52.117Z,1.10
2019-04-26T07:00:17.052Z,1.40
2019-04-26T07:02:00.864Z,1.30
2019-04-26T07:03:32.218Z,1.20
2019-04-26T07:04:56.336Z,1.40
2019-04-26T07:06:02.544Z,1.40
2019-04-26T07:07:25.105Z,1.52
2019-04-26T07:08:56.439Z,1.45
2019-04-26T07:10:07.939Z,1.47
2019-04-26T07:12:12.959Z,1.22
2019-04-26T07:13:46.413Z,1.50
2019-04-26T07:15:50.405Z,1.40
2019-04-26T07:17:03.150Z,1.65
2019-04-26T07:18:49.508Z,1.75
2019-04-26T07:20:44.265Z,1.47
2019-04-26T07:22:48.613Z,1.10
2019-04-26T07:24:41.943Z,1.10
2019-04-26T07:26:26.340Z,1.32
2019-04-26T07:28:06.074Z,1.10
2019-04-26T07:29:26.266Z,1.30
2019-04-26T07:31:13.891Z,1.22
2019-04-26T07:32:34.395Z,1.90
2019-04-26T07:34:14.210Z,1.70
2019-04-26T07:35:58.879Z,1.77
2019-04-26T07:37:43.046Z,1.60
2019-04-26T07:39:55.297Z,1.70
2019-04-26T07:41:26.660Z,2.40
2019-04-26T07:43:15.463Z,2.58
2019-04-26T07:44:55.503Z,2.60
2019-04-26T07:46:22.535Z,2.80
2019-04-26T07:48:20.778Z,2.75
2019-04-26T07:50:03.522Z,2.45
2019-04-26T07:52:02.787Z,1.80
2019-04-26T07:53:32.193Z,2.45
2019-04-26T07:55:12.885Z,1.77
2019-04-26T07:56:42.459Z,2.42
2019-04-26T07:58:11.172Z,1.98
2019-04-26T08:00:13.002Z,1.90
2019-04-26T08:01:54.573Z,1.92
2019-04-26T08:03:28.650Z,1.60
2019-04-26T08:04:37.979Z,2.35
2019-04-26T08:06:12.067Z,1.80
2019-04-26T08:07:23.147Z,2.00
2019-04-26T08:08:30.841Z,1.85
2019-04-26T08:09:38.386Z,2.02
2019-04-26T08:10:48.665Z,2.00
2019-04-26T08:11:56.489Z,2.30
2019-04-26T08:13:07.872Z,2.20
2019-04-26T08:14:26.599Z,1.85
2019-04-26T08:15:53.671Z,2.10
2019-04-26T08:17:20.933Z,1.72
2019-04-26T08:18:33.742Z,1.87
2019-04-26T08:19:44.285Z,2.25
2019-04-26T08:21:09.934Z,2.20
2019-04-26T08:22:20.327Z,1.70
2019-04-26T08:23:38.401Z,2.35
2019-04-26T08:24:31.890Z,2.12
2019-04-26T08:25:38.924Z,1.90
2019-04-26T08:26:46.013Z,2.27
2019-04-26T08:27:53.123Z,2.10
2019-04-26T08:29:00.554Z,2.83
2019-04-26T08:30:15.737Z,2.35
2019-04-26T08:31:24.315Z,1.70
2019-04-26T08:32:33.424Z,2.60
2019-04-26T08:33:48.429Z,2.40
2019-04-26T08:35:02.392Z,2.55
2019-04-26T08:36:08.765Z,2.12
2019-04-26T08:37:22.201Z,2.50
2019-04-26T08:38:27.782Z,1.92
2019-04-26T08:39:44.970Z,2.05
2019-04-26T08:40:41.147Z,2.30
2019-04-26T08:41:46.202Z,2.55
2019-04-26T08:43:27.275Z,2.55
2019-04-26T08:45:10.321Z,2.50
2019-04-26T08:46:49.137Z,2.90
2019-04-26T08:48:27.803Z,2.95
2019-04-26T08:49:48.753Z,2.40
2019-04-26T08:50:54.800Z,2.30
2019-04-26T08:52:13.691Z,2.40
2019-04-26T08:53:09.259Z,2.90
2019-04-26T08:54:20.973Z,2.70
2019-04-26T08:55:27.818Z,2.40
2019-04-26T08:56:36.078Z,3.05
2019-04-26T08:57:43.621Z,3.02
2019-04-26T08:58:51.099Z,2.00
2019-04-26T08:59:58.798Z,2.50
2019-04-26T09:01:24.411Z,2.95
2019-04-26T09:02:49.809Z,3.02
2019-04-26T09:04:16.021Z,3.00
2019-04-26T09:05:52.411Z,2.40
2019-04-26T09:07:09.815Z,3.10
2019-04-26T09:08:17.031Z,3.10
2019-04-26T09:09:25.503Z,3.10
2019-04-26T09:10:32.305Z,3.05
2019-04-26T09:11:38.576Z,2.85
2019-04-26T09:12:45.591Z,2.62
2019-04-26T09:13:52.630Z,2.77
2019-04-26T09:15:00.080Z,2.60
2019-04-26T09:16:13.578Z,2.60
2019-04-26T09:17:18.013Z,2.50
2019-04-26T09:18:22.590Z,2.50
2019-04-26T09:19:30.544Z,3.05
2019-04-26T09:20:33.375Z,3.05
2019-04-26T09:21:47.478Z,2.58
2019-04-26T09:23:22.929Z,2.67
2019-04-26T09:24:39.391Z,2.80
2019-04-26T09:25:58.797Z,2.02
2019-04-26T09:27:22.492Z,2.40
2019-04-26T09:28:48.776Z,3.12
2019-04-26T09:30:17.891Z,2.17
2019-04-26T09:31:43.555Z,2.80
2019-04-26T09:33:15.873Z,2.60
2019-04-26T09:34:20.442Z,1.95
2019-04-26T09:35:24.779Z,1.98
2019-04-26T09:36:29.132Z,2.50
2019-04-26T09:37:33.495Z,2.20
2019-04-26T09:38:37.867Z,2.22
2019-04-26T09:39:43.452Z,2.25
2019-04-26T09:40:47.791Z,2.22
2019-04-26T09:41:53.771Z,2.95
2019-04-26T09:43:05.571Z,2.42
2019-04-26T09:44:28.840Z,2.15
2019-04-26T09:46:10.199Z,2.50
2019-04-26T09:47:27.777Z,1.67
2019-04-26T09:48:54.032Z,1.85
2019-04-26T09:50:17.108Z,1.90
2019-04-26T09:51:21.635Z,2.35
2019-04-26T09:52:28.825Z,1.95
2019-04-26T09:53:33.271Z,2.05
2019-04-26T09:54:37.511Z,2.20
2019-04-26T09:55:41.949Z,2.58
2019-04-26T09:56:46.171Z,2.37
2019-04-26T09:57:53.426Z,2.87
2019-04-26T09:58:56.670Z,2.15
2019-04-26T10:00:00.995Z,2.40
2019-04-26T10:01:06.268Z,2.20
2019-04-26T10:02:11.355Z,1.80
2019-04-26T10:03:15.731Z,2.20
2019-04-26T10:04:20.015Z,1.65
2019-04-26T10:05:24.363Z,2.22
2019-04-26T10:06:29.746Z,1.80
2019-04-26T10:07:37.568Z,2.05
2019-04-26T10:08:43.382Z,2.80
2019-04-26T10:09:47.081Z,2.47
2019-04-26T10:10:51.783Z,2.10
2019-04-26T10:12:00.936Z,2.37
2019-04-26T10:13:24.299Z,2.50
2019-04-26T10:14:38.800Z,2.35
2019-04-26T10:15:52.302Z,2.58
2019-04-26T10:17:06.585Z,2.40
2019-04-26T10:18:10.847Z,2.00
2019-04-26T10:19:18.515Z,2.80
2019-04-26T10:20:23.063Z,2.60
2019-04-26T10:21:27.389Z,1.90
2019-04-26T10:22:32.842Z,2.50
2019-04-26T10:23:37.135Z,2.62
2019-04-26T10:24:41.366Z,2.55
2019-04-26T10:25:47.407Z,2.37
2019-04-26T10:26:51.759Z,2.75
2019-04-26T10:27:56.048Z,2.40
2019-04-26T10:29:00.411Z,2.65
2019-04-26T10:30:09.403Z,2.75
2019-04-26T10:31:17.234Z,3.00
2019-04-26T10:32:21.588Z,2.45
2019-04-26T10:33:26.023Z,2.87
2019-04-26T10:34:30.395Z,2.30
2019-04-26T10:35:34.697Z,3.87
2019-04-26T10:36:39.048Z,2.40
2019-04-26T10:37:43.912Z,2.10
2019-04-26T10:38:49.437Z,2.10
2019-04-26T10:39:53.815Z,2.60
2019-04-26T10:40:58.175Z,2.50
2019-04-26T10:42:02.482Z,2.60
2019-04-26T10:43:08.887Z,2.67
2019-04-26T10:44:13.118Z,2.62
2019-04-26T10:45:17.989Z,2.70
2019-04-26T10:46:24.462Z,2.42
2019-04-26T10:47:28.427Z,2.77
2019-04-26T10:48:32.739Z,2.27
2019-04-26T10:49:41.968Z,2.42
2019-04-26T10:50:46.169Z,2.58
2019-04-26T10:51:50.520Z,2.72
2019-04-26T10:53:19.668Z,2.60
2019-04-26T10:54:24.147Z,2.10
2019-04-26T10:56:02.805Z,3.22
2019-04-26T10:57:20.757Z,2.77
2019-04-26T10:58:31.961Z,2.17
2019-04-26T10:59:44.221Z,2.70
2019-04-26T11:00:52.657Z,3.12
2019-04-26T11:01:57.117Z,3.00
2019-04-26T11:03:04.565Z,2.85
2019-04-26T11:04:07.605Z,3.08
2019-04-26T11:05:18.067Z,3.30
2019-04-26T11:06:18.323Z,2.67
2019-04-26T11:07:22.669Z,2.87
2019-04-26T11:08:27.061Z,2.90
2019-04-26T11:09:31.456Z,3.30
2019-04-26T11:10:48.009Z,2.65
2019-04-26T11:11:43.009Z,3.35
2019-04-26T11:12:47.347Z,2.85
2019-04-26T11:13:51.699Z,2.95
2019-04-26T11:14:56.951Z,3.25
2019-04-26T11:16:02.616Z,3.20
2019-04-26T11:17:11.541Z,3.30
2019-04-26T11:18:14.325Z,2.83
2019-04-26T11:19:18.657Z,3.22
2019-04-26T11:20:23.051Z,3.25
2019-04-26T11:21:27.517Z,3.22
2019-04-26T11:22:33.405Z,3.70
2019-04-26T11:23:41.058Z,3.15
2019-04-26T11:24:43.858Z,3.10
2019-04-26T11:25:48.259Z,3.20
2019-04-26T11:26:52.543Z,3.15
2019-04-26T11:27:57.025Z,3.02
2019-04-26T11:29:01.243Z,2.60
2019-04-26T11:30:11.701Z,2.90
2019-04-26T11:31:12.299Z,2.65
2019-04-26T11:32:16.599Z,2.77
2019-04-26T11:33:20.963Z,3.05
2019-04-26T11:34:25.625Z,3.10
2019-04-26T11:35:33.133Z,2.83
2019-04-26T11:36:37.703Z,2.92
2019-04-26T11:37:42.096Z,2.62
2019-04-26T11:38:46.613Z,2.95
2019-04-26T11:39:50.921Z,2.35
2019-04-26T11:41:05.992Z,2.95
2019-04-26T11:42:01.351Z,3.00
2019-04-26T11:43:05.797Z,3.00
2019-04-26T11:44:10.148Z,2.50
2019-04-26T11:45:16.187Z,2.30
2019-04-26T11:46:21.811Z,2.62
2019-04-26T11:47:26.637Z,2.58
2019-04-26T11:48:30.802Z,2.58
2019-04-26T11:49:37.431Z,2.77
2019-04-26T11:50:41.287Z,2.90
2019-04-26T11:51:45.628Z,2.60
2019-04-26T11:52:49.779Z,2.70
2019-04-26T11:53:54.004Z,2.95
2019-04-26T11:54:58.344Z,2.60
2019-04-26T11:56:04.623Z,2.60
2019-04-26T11:57:12.199Z,2.92
2019-04-26T11:58:17.837Z,3.10
2019-04-26T11:59:20.603Z,2.62
2019-04-26T12:00:32.611Z,2.33
2019-04-26T12:01:40.459Z,2.45
2019-04-26T12:02:46.327Z,3.45
2019-04-26T12:04:11.981Z,2.85
2019-04-26T12:05:35.319Z,3.22
2019-04-26T12:06:45.790Z,3.00
2019-04-26T12:07:53.819Z,3.02
2019-04-26T12:09:03.955Z,2.65
2019-04-26T12:10:09.937Z,3.10
2019-04-26T12:11:18.479Z,2.90
2019-04-26T12:12:20.759Z,2.50
2019-04-26T12:13:26.379Z,2.65
2019-04-26T12:14:33.482Z,2.90
2019-04-26T12:15:39.082Z,3.05
2019-04-26T12:16:49.222Z,2.20
2019-04-26T12:17:58.371Z,3.00
2019-04-26T12:18:54.884Z,3.67
2019-04-26T12:19:59.055Z,3.60
2019-04-26T12:21:03.317Z,3.55
2019-04-26T12:22:08.386Z,3.80
2019-04-26T12:23:20.358Z,3.37
2019-04-26T12:24:19.851Z,2.98
2019-04-26T12:25:24.118Z,3.00
2019-04-26T12:26:28.300Z,3.35
2019-04-26T12:27:32.547Z,2.62
2019-04-26T12:28:40.091Z,4.00
2019-04-26T12:29:44.162Z,4.17
2019-04-26T12:30:49.011Z,3.30
2019-04-26T12:31:53.271Z,4.20
2019-04-26T12:32:57.411Z,3.50
2019-04-26T12:34:01.597Z,3.45
2019-04-26T12:35:05.994Z,4.20
2019-04-26T12:36:13.424Z,4.20
2019-04-26T12:37:20.043Z,3.75
2019-04-26T12:38:24.199Z,3.80
2019-04-26T12:39:32.306Z,3.85
2019-04-26T12:40:34.989Z,3.85
2019-04-26T12:41:40.687Z,4.22
2019-04-26T12:42:47.314Z,3.67
2019-04-26T12:43:54.486Z,3.72
2019-04-26T12:45:29.329Z,3.67
2019-04-26T12:46:42.889Z,3.50
2019-04-26T12:47:53.405Z,4.17
2019-04-26T12:48:57.631Z,4.40
2019-04-26T12:50:01.871Z,4.20
2019-04-26T12:51:08.171Z,3.77
2019-04-26T12:52:12.269Z,3.85
2019-04-26T12:53:18.076Z,3.83
2019-04-26T12:54:22.589Z,3.87
2019-04-26T12:55:26.901Z,3.10
2019-04-26T12:56:32.545Z,3.72
2019-04-26T12:57:40.803Z,3.60
2019-04-26T12:58:45.736Z,4.22
2019-04-26T12:59:48.918Z,3.80
2019-04-26T13:00:54.601Z,3.80
2019-04-26T13:02:05.605Z,3.20
2019-04-26T13:03:05.779Z,3.17
2019-04-26T13:04:09.923Z,3.50
2019-04-26T13:05:18.561Z,3.40
2019-04-26T13:06:20.423Z,3.52
2019-04-26T13:07:24.936Z,3.08
2019-04-26T13:08:29.109Z,3.10
2019-04-26T13:09:34.896Z,2.92
2019-04-26T13:10:57.047Z,3.40
2019-04-26T13:12:29.754Z,3.12
2019-04-26T13:13:39.988Z,3.10
2019-04-26T13:15:01.856Z,3.10
2019-04-26T13:16:21.725Z,3.37
2019-04-26T13:17:31.388Z,3.10
2019-04-26T13:18:35.949Z,2.83
2019-04-26T13:19:40.263Z,2.85
2019-04-26T13:20:44.423Z,2.75
2019-04-26T13:21:48.808Z,2.95
2019-04-26T13:22:54.182Z,2.75
2019-04-26T13:24:00.215Z,2.55
2019-04-26T13:25:15.488Z,2.92
2019-04-26T13:26:11.939Z,3.33
2019-04-26T13:27:16.148Z,2.47
2019-04-26T13:28:21.814Z,2.95
2019-04-26T13:29:27.188Z,2.85
2019-04-26T13:30:32.955Z,3.00
2019-04-26T13:31:37.575Z,2.67
2019-04-26T13:32:41.859Z,2.40
2019-04-26T13:33:46.174Z,2.60
2019-04-26T13:34:50.651Z,2.30
2019-04-26T13:36:02.554Z,3.22
2019-04-26T13:37:03.007Z,2.55
2019-04-26T13:38:08.683Z,2.72
2019-04-26T13:39:17.873Z,2.70
2019-04-26T13:40:20.127Z,2.98
2019-04-26T13:41:24.410Z,3.10
2019-04-26T13:42:28.727Z,2.77
2019-04-26T13:43:33.031Z,2.70
2019-04-26T13:44:55.303Z,2.45
2019-04-26T13:46:21.609Z,2.75
2019-04-26T13:47:45.026Z,2.62
2019-04-26T13:48:59.915Z,2.80
2019-04-26T13:50:12.138Z,2.37
2019-04-26T13:51:18.042Z,2.60
2019-04-26T13:52:22.269Z,2.40
2019-04-26T13:53:26.942Z,2.60
2019-04-26T13:54:31.599Z,2.62
2019-04-26T13:55:35.999Z,2.30
2019-04-26T13:56:40.141Z,1.87
2019-04-26T13:57:46.005Z,1.90
2019-04-26T13:58:50.309Z,2.10
2019-04-26T13:59:54.563Z,2.20
2019-04-26T14:00:59.130Z,1.60
2019-04-26T14:02:11.447Z,1.80
2019-04-26T14:03:09.577Z,2.10
2019-04-26T14:04:14.010Z,1.45
2019-04-26T14:05:18.381Z,1.77
2019-04-26T14:06:22.785Z,1.70
2019-04-26T14:07:27.070Z,1.30
2019-04-26T14:08:31.221Z,1.62
2019-04-26T14:09:35.501Z,1.60
2019-04-26T14:10:39.782Z,1.82
2019-04-26T14:11:44.161Z,1.77
2019-04-26T14:12:49.983Z,1.67
2019-04-26T14:13:55.419Z,1.80
2019-04-26T14:15:00.297Z,1.70
2019-04-26T14:16:04.750Z,1.98
2019-04-26T14:17:09.155Z,1.40
2019-04-26T14:18:13.462Z,1.30
2019-04-26T14:19:17.741Z,1.35
2019-04-26T14:20:23.304Z,1.10
2019-04-26T14:21:29.140Z,1.37
2019-04-26T14:22:40.955Z,1.20
2019-04-26T14:23:53.935Z,1.30
2019-04-26T14:25:05.403Z,0.90
2019-04-26T14:26:28.656Z,1.05
2019-04-26T14:27:45.340Z,1.10
2019-04-26T14:28:54.343Z,0.90
2019-04-26T14:29:57.370Z,0.98
2019-04-26T14:31:01.933Z,0.82
2019-04-26T14:32:06.233Z,1.20
2019-04-26T14:33:10.565Z,0.90
2019-04-26T14:34:14.905Z,1.10
2019-04-26T14:35:19.189Z,1.00
2019-04-26T14:36:26.750Z,0.82
2019-04-26T14:37:29.526Z,1.02
2019-04-26T14:38:39.519Z,0.90
2019-04-26T14:39:50.137Z,0.90
2019-04-26T14:40:46.165Z,0.75
2019-04-26T14:41:52.743Z,0.90
2019-04-26T14:43:06.465Z,0.72
2019-04-26T14:44:14.831Z,0.90
2019-04-26T14:45:09.082Z,1.17
2019-04-26T14:46:14.544Z,0.80
2019-04-26T14:47:19.217Z,0.72
2019-04-26T14:48:35.391Z,0.90
2019-04-26T14:49:39.053Z,0.95
2019-04-26T14:50:35.593Z,0.80
2019-04-26T14:51:40.666Z,0.60
2019-04-26T14:52:45.090Z,0.75
2019-04-26T14:53:49.266Z,0.80
2019-04-26T14:54:53.469Z,0.60
2019-04-26T14:55:57.736Z,0.70
2019-04-26T14:57:07.105Z,0.55
2019-04-26T14:58:08.174Z,0.60
2019-04-26T14:59:12.479Z,0.70
2019-04-26T15:00:21.184Z,0.65
2019-04-26T15:01:52.294Z,0.60
2019-04-26T15:03:03.141Z,0.70
2019-04-26T15:04:28.192Z,0.68
2019-04-26T15:05:54.277Z,0.80
2019-04-26T15:06:59.665Z,0.50
2019-04-26T15:08:09.426Z,0.57
2019-04-26T15:09:18.067Z,0.80
2019-04-26T15:10:18.511Z,1.00
2019-04-26T15:11:23.078Z,0.88
2019-04-26T15:12:27.502Z,0.60
2019-04-26T15:13:36.223Z,0.78
2019-04-26T15:14:37.912Z,0.60
2019-04-26T15:15:43.401Z,0.70
2019-04-26T15:16:48.235Z,0.80
2019-04-26T15:17:55.142Z,0.60
2019-04-26T15:18:58.619Z,0.80
2019-04-26T15:20:03.361Z,0.80
2019-04-26T15:21:07.839Z,0.90
2019-04-26T15:22:12.282Z,0.90
2019-04-26T15:23:19.510Z,0.90
2019-04-26T15:24:22.735Z,0.70
2019-04-26T15:25:27.475Z,0.68
2019-04-26T15:26:32.775Z,0.90
2019-04-26T15:27:37.300Z,0.90
2019-04-26T15:28:43.740Z,0.70
2019-04-26T15:29:47.545Z,0.88
2019-04-26T15:30:52.703Z,0.80
2019-04-26T15:31:58.232Z,0.70
2019-04-26T15:33:04.761Z,0.90
2019-04-26T15:34:08.755Z,0.70
2019-04-26T15:35:16.170Z,1.20
2019-04-26T15:36:19.185Z,0.70
2019-04-26T15:37:25.033Z,0.78
2019-04-26T15:38:35.153Z,0.70
2019-04-26T15:39:58.376Z,0.50
2019-04-26T15:41:22.266Z,0.70
2019-04-26T15:42:44.476Z,0.85
2019-04-26T15:44:13.732Z,0.90
2019-04-26T15:45:25.267Z,0.82
2019-04-26T15:46:53.879Z,0.90
2019-04-26T15:48:12.031Z,0.60
2019-04-26T15:49:42.944Z,0.90
2019-04-26T15:50:51.731Z,1.00
2019-04-26T15:51:56.293Z,1.00
2019-04-26T15:53:00.294Z,0.80
2019-04-26T15:54:04.608Z,1.05
2019-04-26T15:55:08.902Z,1.07
2019-04-26T15:56:16.196Z,0.80
2019-04-26T15:57:19.266Z,0.90
2019-04-26T15:58:23.515Z,1.00
2019-04-26T15:59:27.937Z,1.10
2019-04-26T16:00:35.257Z,0.80
2019-04-26T16:01:41.888Z,0.80
2019-04-26T16:02:44.223Z,0.82
2019-04-26T16:03:48.456Z,0.75
2019-04-26T16:04:54.366Z,0.70
2019-04-26T16:05:59.188Z,0.90
2019-04-26T16:07:04.765Z,0.82
2019-04-26T16:08:09.035Z,0.82
2019-04-26T16:09:19.360Z,0.90
2019-04-26T16:10:19.447Z,0.80
2019-04-26T16:11:23.727Z,0.70
2019-04-26T16:12:27.934Z,0.95
2019-04-26T16:13:32.364Z,0.88
2019-04-26T16:14:37.108Z,0.90
2019-04-26T16:15:43.593Z,0.80
2019-04-26T16:16:47.491Z,0.82
2019-04-26T16:17:52.116Z,0.93
2019-04-26T16:18:57.278Z,1.05
2019-04-26T16:20:01.880Z,1.40
2019-04-26T16:21:06.335Z,1.10
2019-04-26T16:22:11.011Z,0.90
2019-04-26T16:23:15.283Z,1.07
2019-04-26T16:24:19.613Z,1.00